sensor_id;sensor_type;location;lat;lon;timestamp;P1;durP1;ratioP1;P2;durP2;ratioP2
13693;SDS011;6919;52.344;14.518;2022-08-04T00:01:16;3.50;;;3.20;;
13693;SDS011;6919;52.344;14.518;2022-08-04T00:04:01;4.13;;;3.57;;
13693;SDS011;6919;52.344;14.518;2022-08-04T00:06:44;6.57;;;3.40;;
13693;SDS011;6919;52.344;14.518;2022-08-04T00:09:28;4.83;;;3.37;;
13693;SDS011;6919;52.344;14.518;2022-08-04T00:12:05;8.00;;;3.67;;
13693;SDS011;6919;52.344;14.518;2022-08-04T00:14:40;8.73;;;3.80;;
13693;SDS011;6919;52.344;14.518;2022-08-04T00:17:15;6.33;;;3.37;;
13693;SDS011;6919;52.344;14.518;2022-08-04T00:19:47;5.37;;;3.90;;
13693;SDS011;6919;52.344;14.518;2022-08-04T00:22:22;5.03;;;3.77;;
13693;SDS011;6919;52.344;14.518;2022-08-04T00:24:55;5.27;;;3.80;;
13693;SDS011;6919;52.344;14.518;2022-08-04T00:27:29;4.33;;;3.67;;
13693;SDS011;6919;52.344;14.518;2022-08-04T00:30:03;5.80;;;3.47;;
13693;SDS011;6919;52.344;14.518;2022-08-04T00:32:33;5.17;;;3.57;;
13693;SDS011;6919;52.344;14.518;2022-08-04T00:35:02;4.17;;;3.60;;
13693;SDS011;6919;52.344;14.518;2022-08-04T00:37:31;8.00;;;4.27;;
13693;SDS011;6919;52.344;14.518;2022-08-04T00:40:01;3.97;;;3.57;;
13693;SDS011;6919;52.344;14.518;2022-08-04T00:42:48;4.97;;;3.50;;
13693;SDS011;6919;52.344;14.518;2022-08-04T00:49:02;4.63;;;4.07;;
13693;SDS011;6919;52.344;14.518;2022-08-04T00:52:05;6.50;;;3.67;;
13693;SDS011;6919;52.344;14.518;2022-08-04T00:55:03;6.03;;;3.70;;
13693;SDS011;6919;52.344;14.518;2022-08-04T00:57:54;4.80;;;3.70;;
13693;SDS011;6919;52.344;14.518;2022-08-04T01:00:46;5.13;;;3.73;;
13693;SDS011;6919;52.344;14.518;2022-08-04T01:03:32;4.27;;;3.70;;
13693;SDS011;6919;52.344;14.518;2022-08-04T01:06:20;6.93;;;3.40;;
13693;SDS011;6919;52.344;14.518;2022-08-04T01:12:07;6.53;;;3.90;;
13693;SDS011;6919;52.344;14.518;2022-08-04T01:14:57;4.83;;;4.03;;
13693;SDS011;6919;52.344;14.518;2022-08-04T01:17:36;5.50;;;3.97;;
13693;SDS011;6919;52.344;14.518;2022-08-04T01:20:20;7.00;;;3.90;;
13693;SDS011;6919;52.344;14.518;2022-08-04T01:23:02;5.60;;;3.53;;
13693;SDS011;6919;52.344;14.518;2022-08-04T01:29:26;5.70;;;3.50;;
13693;SDS011;6919;52.344;14.518;2022-08-04T01:32:14;3.97;;;3.47;;
13693;SDS011;6919;52.344;14.518;2022-08-04T01:34:52;4.10;;;3.70;;
13693;SDS011;6919;52.344;14.518;2022-08-04T01:40:16;22.60;;;3.80;;
13693;SDS011;6919;52.344;14.518;2022-08-04T01:42:47;5.03;;;4.17;;
13693;SDS011;6919;52.344;14.518;2022-08-04T01:45:21;5.97;;;4.10;;
13693;SDS011;6919;52.344;14.518;2022-08-04T01:47:52;4.50;;;4.00;;
13693;SDS011;6919;52.344;14.518;2022-08-04T01:50:22;6.07;;;3.90;;
13693;SDS011;6919;52.344;14.518;2022-08-04T01:52:53;5.07;;;3.87;;
13693;SDS011;6919;52.344;14.518;2022-08-04T01:55:22;5.37;;;3.80;;
13693;SDS011;6919;52.344;14.518;2022-08-04T01:58:16;6.37;;;3.73;;
13693;SDS011;6919;52.344;14.518;2022-08-04T02:00:49;8.30;;;4.80;;
13693;SDS011;6919;52.344;14.518;2022-08-04T02:03:30;8.57;;;4.30;;
13693;SDS011;6919;52.344;14.518;2022-08-04T02:06:23;5.60;;;4.20;;
13693;SDS011;6919;52.344;14.518;2022-08-04T02:09:09;4.37;;;3.97;;
13693;SDS011;6919;52.344;14.518;2022-08-04T02:11:51;7.03;;;4.00;;
13693;SDS011;6919;52.344;14.518;2022-08-04T02:14:44;4.80;;;4.30;;
13693;SDS011;6919;52.344;14.518;2022-08-04T02:17:25;4.83;;;4.07;;
13693;SDS011;6919;52.344;14.518;2022-08-04T02:20:06;5.47;;;4.20;;
13693;SDS011;6919;52.344;14.518;2022-08-04T02:22:44;6.10;;;4.03;;
13693;SDS011;6919;52.344;14.518;2022-08-04T02:25:21;4.53;;;4.00;;
13693;SDS011;6919;52.344;14.518;2022-08-04T02:28:08;4.17;;;3.77;;
13693;SDS011;6919;52.344;14.518;2022-08-04T02:30:49;6.40;;;4.23;;
13693;SDS011;6919;52.344;14.518;2022-08-04T02:33:43;8.10;;;4.13;;
13693;SDS011;6919;52.344;14.518;2022-08-04T02:36:14;6.83;;;4.47;;
13693;SDS011;6919;52.344;14.518;2022-08-04T02:38:53;7.47;;;4.30;;
13693;SDS011;6919;52.344;14.518;2022-08-04T02:41:23;8.83;;;3.77;;
13693;SDS011;6919;52.344;14.518;2022-08-04T02:43:55;5.87;;;4.77;;
13693;SDS011;6919;52.344;14.518;2022-08-04T02:46:26;5.07;;;4.50;;
13693;SDS011;6919;52.344;14.518;2022-08-04T02:48:57;7.00;;;4.43;;
13693;SDS011;6919;52.344;14.518;2022-08-04T02:51:31;6.17;;;4.10;;
13693;SDS011;6919;52.344;14.518;2022-08-04T02:54:04;4.93;;;4.03;;
13693;SDS011;6919;52.344;14.518;2022-08-04T02:56:34;9.40;;;4.53;;
13693;SDS011;6919;52.344;14.518;2022-08-04T02:59:04;5.80;;;4.27;;
13693;SDS011;6919;52.344;14.518;2022-08-04T03:01:35;4.80;;;4.30;;
13693;SDS011;6919;52.344;14.518;2022-08-04T03:04:30;9.57;;;4.80;;
13693;SDS011;6919;52.344;14.518;2022-08-04T03:07:28;5.30;;;4.77;;
13693;SDS011;6919;52.344;14.518;2022-08-04T03:10:40;4.97;;;4.47;;
13693;SDS011;6919;52.344;14.518;2022-08-04T03:13:55;8.77;;;5.10;;
13693;SDS011;6919;52.344;14.518;2022-08-04T03:27:10;5.57;;;4.50;;
13693;SDS011;6919;52.344;14.518;2022-08-04T03:30:17;5.17;;;4.60;;
13693;SDS011;6919;52.344;14.518;2022-08-04T03:36:57;7.33;;;4.17;;
13693;SDS011;6919;52.344;14.518;2022-08-04T03:39:51;8.77;;;4.40;;
13693;SDS011;6919;52.344;14.518;2022-08-04T03:46:38;6.50;;;4.53;;
13693;SDS011;6919;52.344;14.518;2022-08-04T03:59:39;5.43;;;4.83;;
13693;SDS011;6919;52.344;14.518;2022-08-04T04:12:52;6.53;;;4.67;;
13693;SDS011;6919;52.344;14.518;2022-08-04T04:16:00;5.93;;;4.23;;
13693;SDS011;6919;52.344;14.518;2022-08-04T04:19:00;7.80;;;4.60;;
13693;SDS011;6919;52.344;14.518;2022-08-04T04:22:07;10.13;;;5.30;;
13693;SDS011;6919;52.344;14.518;2022-08-04T04:24:56;7.47;;;4.73;;
13693;SDS011;6919;52.344;14.518;2022-08-04T04:27:41;7.50;;;5.20;;
13693;SDS011;6919;52.344;14.518;2022-08-04T04:30:51;5.27;;;4.77;;
13693;SDS011;6919;52.344;14.518;2022-08-04T04:33:42;5.10;;;4.43;;
13693;SDS011;6919;52.344;14.518;2022-08-04T04:36:28;6.17;;;4.90;;
13693;SDS011;6919;52.344;14.518;2022-08-04T04:39:12;7.90;;;5.03;;
13693;SDS011;6919;52.344;14.518;2022-08-04T04:42:04;7.53;;;4.63;;
13693;SDS011;6919;52.344;14.518;2022-08-04T04:45:04;7.73;;;4.50;;
13693;SDS011;6919;52.344;14.518;2022-08-04T04:48:03;9.47;;;4.77;;
13693;SDS011;6919;52.344;14.518;2022-08-04T04:50:52;6.80;;;5.10;;
13693;SDS011;6919;52.344;14.518;2022-08-04T04:53:37;5.60;;;4.80;;
13693;SDS011;6919;52.344;14.518;2022-08-04T04:56:30;7.73;;;4.90;;
13693;SDS011;6919;52.344;14.518;2022-08-04T04:59:12;7.90;;;4.60;;
13693;SDS011;6919;52.344;14.518;2022-08-04T05:01:53;8.53;;;5.03;;
13693;SDS011;6919;52.344;14.518;2022-08-04T05:05:02;8.60;;;4.70;;
13693;SDS011;6919;52.344;14.518;2022-08-04T05:07:55;7.27;;;4.20;;
13693;SDS011;6919;52.344;14.518;2022-08-04T05:11:24;5.67;;;4.67;;
13693;SDS011;6919;52.344;14.518;2022-08-04T05:14:57;6.30;;;4.33;;
13693;SDS011;6919;52.344;14.518;2022-08-04T05:17:33;7.97;;;4.70;;
13693;SDS011;6919;52.344;14.518;2022-08-04T05:20:05;9.70;;;4.70;;
13693;SDS011;6919;52.344;14.518;2022-08-04T05:22:41;6.43;;;4.70;;
13693;SDS011;6919;52.344;14.518;2022-08-04T05:25:18;10.57;;;4.77;;
13693;SDS011;6919;52.344;14.518;2022-08-04T05:27:55;7.80;;;4.43;;
13693;SDS011;6919;52.344;14.518;2022-08-04T05:30:34;6.73;;;4.83;;
13693;SDS011;6919;52.344;14.518;2022-08-04T05:33:14;5.57;;;4.80;;
13693;SDS011;6919;52.344;14.518;2022-08-04T05:35:54;7.57;;;4.90;;
13693;SDS011;6919;52.344;14.518;2022-08-04T05:38:48;7.23;;;4.40;;
13693;SDS011;6919;52.344;14.518;2022-08-04T05:41:25;5.27;;;4.60;;
13693;SDS011;6919;52.344;14.518;2022-08-04T05:44:11;7.17;;;4.73;;
13693;SDS011;6919;52.344;14.518;2022-08-04T05:46:44;5.30;;;4.80;;
13693;SDS011;6919;52.344;14.518;2022-08-04T05:49:20;4.77;;;4.37;;
13693;SDS011;6919;52.344;14.518;2022-08-04T05:51:51;8.53;;;4.43;;
13693;SDS011;6919;52.344;14.518;2022-08-04T05:54:22;8.40;;;4.50;;
13693;SDS011;6919;52.344;14.518;2022-08-04T05:56:52;6.60;;;4.50;;
13693;SDS011;6919;52.344;14.518;2022-08-04T05:59:21;5.63;;;4.50;;
13693;SDS011;6919;52.344;14.518;2022-08-04T06:01:54;4.80;;;4.07;;
13693;SDS011;6919;52.344;14.518;2022-08-04T06:04:29;5.43;;;4.00;;
13693;SDS011;6919;52.344;14.518;2022-08-04T06:07:02;4.57;;;3.97;;
13693;SDS011;6919;52.344;14.518;2022-08-04T06:09:31;6.70;;;4.10;;
13693;SDS011;6919;52.344;14.518;2022-08-04T06:12:01;5.90;;;3.90;;
13693;SDS011;6919;52.344;14.518;2022-08-04T06:14:35;7.07;;;4.10;;
13693;SDS011;6919;52.344;14.518;2022-08-04T06:17:14;4.80;;;4.07;;
13693;SDS011;6919;52.344;14.518;2022-08-04T06:20:12;7.37;;;4.43;;
13693;SDS011;6919;52.344;14.518;2022-08-04T06:22:49;7.90;;;4.07;;
13693;SDS011;6919;52.344;14.518;2022-08-04T06:25:24;5.45;;;4.20;;
13693;SDS011;6919;52.344;14.518;2022-08-04T06:27:57;4.97;;;4.20;;
13693;SDS011;6919;52.344;14.518;2022-08-04T06:30:29;10.80;;;4.45;;
13693;SDS011;6919;52.344;14.518;2022-08-04T06:33:00;8.00;;;4.20;;
13693;SDS011;6919;52.344;14.518;2022-08-04T06:35:39;8.40;;;4.35;;
13693;SDS011;6919;52.344;14.518;2022-08-04T06:38:08;4.60;;;4.03;;
13693;SDS011;6919;52.344;14.518;2022-08-04T06:40:40;4.78;;;3.97;;
13693;SDS011;6919;52.344;14.518;2022-08-04T06:43:09;5.25;;;3.60;;
13693;SDS011;6919;52.344;14.518;2022-08-04T06:45:38;5.20;;;3.80;;
13693;SDS011;6919;52.344;14.518;2022-08-04T06:48:11;6.32;;;4.22;;
13693;SDS011;6919;52.344;14.518;2022-08-04T06:50:47;6.88;;;3.90;;
13693;SDS011;6919;52.344;14.518;2022-08-04T06:53:37;9.25;;;4.20;;
13693;SDS011;6919;52.344;14.518;2022-08-04T06:56:05;7.28;;;4.50;;
13693;SDS011;6919;52.344;14.518;2022-08-04T06:58:37;5.07;;;3.75;;
13693;SDS011;6919;52.344;14.518;2022-08-04T07:01:07;5.88;;;3.90;;
13693;SDS011;6919;52.344;14.518;2022-08-04T07:03:38;8.57;;;4.30;;
13693;SDS011;6919;52.344;14.518;2022-08-04T07:06:06;5.45;;;4.13;;
13693;SDS011;6919;52.344;14.518;2022-08-04T07:08:40;6.90;;;4.60;;
13693;SDS011;6919;52.344;14.518;2022-08-04T07:11:09;7.40;;;4.03;;
13693;SDS011;6919;52.344;14.518;2022-08-04T07:13:39;12.70;;;4.20;;
13693;SDS011;6919;52.344;14.518;2022-08-04T07:16:12;10.80;;;3.70;;
13693;SDS011;6919;52.344;14.518;2022-08-04T07:18:44;7.63;;;3.60;;
13693;SDS011;6919;52.344;14.518;2022-08-04T07:21:18;4.45;;;3.83;;
13693;SDS011;6919;52.344;14.518;2022-08-04T07:23:49;8.63;;;3.55;;
13693;SDS011;6919;52.344;14.518;2022-08-04T07:26:17;6.00;;;4.20;;
13693;SDS011;6919;52.344;14.518;2022-08-04T07:28:54;5.10;;;3.55;;
13693;SDS011;6919;52.344;14.518;2022-08-04T07:31:24;7.95;;;4.07;;
13693;SDS011;6919;52.344;14.518;2022-08-04T07:34:02;9.15;;;3.60;;
13693;SDS011;6919;52.344;14.518;2022-08-04T07:36:45;7.10;;;4.20;;
13693;SDS011;6919;52.344;14.518;2022-08-04T07:39:18;5.80;;;3.40;;
13693;SDS011;6919;52.344;14.518;2022-08-04T07:41:55;6.90;;;3.50;;
13693;SDS011;6919;52.344;14.518;2022-08-04T07:44:27;7.45;;;3.60;;
13693;SDS011;6919;52.344;14.518;2022-08-04T07:46:57;8.30;;;4.05;;
13693;SDS011;6919;52.344;14.518;2022-08-04T07:49:28;4.57;;;3.97;;
13693;SDS011;6919;52.344;14.518;2022-08-04T07:52:17;10.85;;;4.03;;
13693;SDS011;6919;52.344;14.518;2022-08-04T07:54:47;9.98;;;3.75;;
13693;SDS011;6919;52.344;14.518;2022-08-04T07:57:17;4.03;;;3.50;;
13693;SDS011;6919;52.344;14.518;2022-08-04T08:00:07;12.65;;;3.88;;
13693;SDS011;6919;52.344;14.518;2022-08-04T08:02:39;8.60;;;3.50;;
13693;SDS011;6919;52.344;14.518;2022-08-04T08:05:11;5.15;;;3.40;;
13693;SDS011;6919;52.344;14.518;2022-08-04T08:07:43;7.78;;;3.42;;
13693;SDS011;6919;52.344;14.518;2022-08-04T08:10:20;6.60;;;3.35;;
13693;SDS011;6919;52.344;14.518;2022-08-04T08:12:50;8.05;;;3.70;;
13693;SDS011;6919;52.344;14.518;2022-08-04T08:15:19;6.53;;;3.40;;
13693;SDS011;6919;52.344;14.518;2022-08-04T08:17:49;9.48;;;3.50;;
13693;SDS011;6919;52.344;14.518;2022-08-04T08:20:28;6.75;;;3.30;;
13693;SDS011;6919;52.344;14.518;2022-08-04T08:22:58;6.32;;;3.40;;
13693;SDS011;6919;52.344;14.518;2022-08-04T08:25:30;3.60;;;3.28;;
13693;SDS011;6919;52.344;14.518;2022-08-04T08:28:01;7.43;;;3.45;;
13693;SDS011;6919;52.344;14.518;2022-08-04T08:30:32;5.10;;;3.20;;
13693;SDS011;6919;52.344;14.518;2022-08-04T08:33:02;4.32;;;3.38;;
13693;SDS011;6919;52.344;14.518;2022-08-04T08:35:35;10.30;;;3.50;;
13693;SDS011;6919;52.344;14.518;2022-08-04T08:38:23;3.53;;;3.00;;
13693;SDS011;6919;52.344;14.518;2022-08-04T08:44:49;4.60;;;3.40;;
13693;SDS011;6919;52.344;14.518;2022-08-04T08:47:49;5.80;;;3.97;;
13693;SDS011;6919;52.344;14.518;2022-08-04T08:51:12;7.28;;;3.70;;
13693;SDS011;6919;52.344;14.518;2022-08-04T08:57:34;5.45;;;3.60;;
13693;SDS011;6919;52.344;14.518;2022-08-04T09:00:27;7.03;;;3.75;;
13693;SDS011;6919;52.344;14.518;2022-08-04T09:06:55;5.70;;;3.50;;
13693;SDS011;6919;52.344;14.518;2022-08-04T09:09:52;4.60;;;2.78;;
13693;SDS011;6919;52.344;14.518;2022-08-04T09:12:32;5.13;;;3.20;;
13693;SDS011;6919;52.344;14.518;2022-08-04T09:15:11;6.10;;;3.00;;
13693;SDS011;6919;52.344;14.518;2022-08-04T09:17:46;6.85;;;2.90;;
13693;SDS011;6919;52.344;14.518;2022-08-04T09:20:21;4.30;;;2.53;;
13693;SDS011;6919;52.344;14.518;2022-08-04T09:23:07;4.35;;;2.38;;
13693;SDS011;6919;52.344;14.518;2022-08-04T09:25:47;2.92;;;2.35;;
13693;SDS011;6919;52.344;14.518;2022-08-04T09:28:25;4.30;;;1.90;;
13693;SDS011;6919;52.344;14.518;2022-08-04T09:31:18;5.82;;;2.40;;
13693;SDS011;6919;52.344;14.518;2022-08-04T09:33:54;2.45;;;2.20;;
13693;SDS011;6919;52.344;14.518;2022-08-04T09:36:36;9.43;;;2.53;;
13693;SDS011;6919;52.344;14.518;2022-08-04T09:39:25;3.25;;;2.30;;
13693;SDS011;6919;52.344;14.518;2022-08-04T09:42:08;2.70;;;2.20;;
13693;SDS011;6919;52.344;14.518;2022-08-04T09:44:52;3.95;;;2.80;;
13693;SDS011;6919;52.344;14.518;2022-08-04T09:47:33;5.18;;;2.78;;
13693;SDS011;6919;52.344;14.518;2022-08-04T09:50:16;6.78;;;2.97;;
13693;SDS011;6919;52.344;14.518;2022-08-04T09:53:07;4.68;;;2.78;;
13693;SDS011;6919;52.344;14.518;2022-08-04T09:55:52;2.50;;;2.30;;
13693;SDS011;6919;52.344;14.518;2022-08-04T09:58:38;2.72;;;2.30;;
13693;SDS011;6919;52.344;14.518;2022-08-04T10:01:18;2.95;;;1.95;;
13693;SDS011;6919;52.344;14.518;2022-08-04T10:03:52;2.33;;;2.13;;
13693;SDS011;6919;52.344;14.518;2022-08-04T10:06:31;2.88;;;2.28;;
13693;SDS011;6919;52.344;14.518;2022-08-04T10:09:23;2.90;;;2.33;;
13693;SDS011;6919;52.344;14.518;2022-08-04T10:12:11;5.53;;;2.40;;
13693;SDS011;6919;52.344;14.518;2022-08-04T10:14:57;4.57;;;2.08;;
13693;SDS011;6919;52.344;14.518;2022-08-04T10:17:50;4.82;;;2.17;;
13693;SDS011;6919;52.344;14.518;2022-08-04T10:20:45;3.63;;;2.67;;
13693;SDS011;6919;52.344;14.518;2022-08-04T10:23:41;5.28;;;2.60;;
13693;SDS011;6919;52.344;14.518;2022-08-04T10:26:41;5.15;;;2.75;;
13693;SDS011;6919;52.344;14.518;2022-08-04T10:29:25;6.10;;;2.05;;
13693;SDS011;6919;52.344;14.518;2022-08-04T10:31:59;6.00;;;2.25;;
13693;SDS011;6919;52.344;14.518;2022-08-04T10:34:38;2.22;;;2.03;;
13693;SDS011;6919;52.344;14.518;2022-08-04T10:37:17;2.35;;;2.10;;
13693;SDS011;6919;52.344;14.518;2022-08-04T10:40:11;3.72;;;1.92;;
13693;SDS011;6919;52.344;14.518;2022-08-04T10:43:18;4.22;;;2.25;;
13693;SDS011;6919;52.344;14.518;2022-08-04T10:46:07;4.18;;;2.05;;
13693;SDS011;6919;52.344;14.518;2022-08-04T10:48:44;1.83;;;1.73;;
13693;SDS011;6919;52.344;14.518;2022-08-04T10:51:22;4.45;;;1.95;;
13693;SDS011;6919;52.344;14.518;2022-08-04T10:54:18;4.90;;;2.53;;
13693;SDS011;6919;52.344;14.518;2022-08-04T10:56:57;3.33;;;1.98;;
13693;SDS011;6919;52.344;14.518;2022-08-04T10:59:33;2.72;;;1.90;;
13693;SDS011;6919;52.344;14.518;2022-08-04T11:02:18;5.28;;;2.20;;
13693;SDS011;6919;52.344;14.518;2022-08-04T11:05:11;5.65;;;1.98;;
13693;SDS011;6919;52.344;14.518;2022-08-04T11:07:51;4.43;;;1.92;;
13693;SDS011;6919;52.344;14.518;2022-08-04T11:10:27;3.30;;;1.77;;
13693;SDS011;6919;52.344;14.518;2022-08-04T11:13:04;3.08;;;2.10;;
13693;SDS011;6919;52.344;14.518;2022-08-04T11:15:55;2.67;;;2.00;;
13693;SDS011;6919;52.344;14.518;2022-08-04T11:18:33;3.35;;;2.00;;
13693;SDS011;6919;52.344;14.518;2022-08-04T11:21:14;5.95;;;2.10;;
13693;SDS011;6919;52.344;14.518;2022-08-04T11:23:52;2.33;;;1.90;;
13693;SDS011;6919;52.344;14.518;2022-08-04T11:26:33;4.15;;;2.20;;
13693;SDS011;6919;52.344;14.518;2022-08-04T11:29:15;2.70;;;2.00;;
13693;SDS011;6919;52.344;14.518;2022-08-04T11:31:54;2.25;;;1.90;;
13693;SDS011;6919;52.344;14.518;2022-08-04T11:34:29;4.07;;;1.50;;
13693;SDS011;6919;52.344;14.518;2022-08-04T11:37:03;8.32;;;2.15;;
13693;SDS011;6919;52.344;14.518;2022-08-04T11:39:41;5.13;;;3.25;;
13693;SDS011;6919;52.344;14.518;2022-08-04T11:42:17;3.67;;;3.28;;
13693;SDS011;6919;52.344;14.518;2022-08-04T11:44:50;2.08;;;1.80;;
13693;SDS011;6919;52.344;14.518;2022-08-04T11:47:26;4.20;;;2.00;;
13693;SDS011;6919;52.344;14.518;2022-08-04T11:50:01;6.07;;;2.10;;
13693;SDS011;6919;52.344;14.518;2022-08-04T11:52:37;5.43;;;2.13;;
13693;SDS011;6919;52.344;14.518;2022-08-04T11:55:09;4.07;;;2.10;;
13693;SDS011;6919;52.344;14.518;2022-08-04T11:57:44;2.05;;;1.85;;
13693;SDS011;6919;52.344;14.518;2022-08-04T12:00:19;3.60;;;1.80;;
13693;SDS011;6919;52.344;14.518;2022-08-04T12:02:59;3.47;;;2.00;;
13693;SDS011;6919;52.344;14.518;2022-08-04T12:05:45;2.80;;;2.20;;
13693;SDS011;6919;52.344;14.518;2022-08-04T12:08:28;3.03;;;2.72;;
13693;SDS011;6919;52.344;14.518;2022-08-04T12:11:20;2.88;;;2.30;;
13693;SDS011;6919;52.344;14.518;2022-08-04T12:14:12;2.90;;;2.17;;
13693;SDS011;6919;52.344;14.518;2022-08-04T12:16:54;2.08;;;1.88;;
13693;SDS011;6919;52.344;14.518;2022-08-04T12:19:31;3.58;;;1.80;;
13693;SDS011;6919;52.344;14.518;2022-08-04T12:22:31;3.17;;;1.98;;
13693;SDS011;6919;52.344;14.518;2022-08-04T12:25:06;2.42;;;2.00;;
13693;SDS011;6919;52.344;14.518;2022-08-04T12:27:39;4.15;;;1.90;;
13693;SDS011;6919;52.344;14.518;2022-08-04T12:30:13;2.50;;;2.00;;
13693;SDS011;6919;52.344;14.518;2022-08-04T12:33:09;3.08;;;1.98;;
13693;SDS011;6919;52.344;14.518;2022-08-04T12:36:11;3.85;;;1.85;;
13693;SDS011;6919;52.344;14.518;2022-08-04T12:38:51;3.47;;;1.90;;
13693;SDS011;6919;52.344;14.518;2022-08-04T12:41:31;2.05;;;1.85;;
13693;SDS011;6919;52.344;14.518;2022-08-04T12:44:09;4.32;;;2.03;;
13693;SDS011;6919;52.344;14.518;2022-08-04T12:47:00;2.28;;;2.05;;
13693;SDS011;6919;52.344;14.518;2022-08-04T12:49:52;2.20;;;2.00;;
13693;SDS011;6919;52.344;14.518;2022-08-04T12:52:27;6.03;;;2.15;;
13693;SDS011;6919;52.344;14.518;2022-08-04T12:55:23;4.25;;;1.90;;
13693;SDS011;6919;52.344;14.518;2022-08-04T12:57:58;4.35;;;2.00;;
13693;SDS011;6919;52.344;14.518;2022-08-04T13:00:36;5.65;;;1.70;;
13693;SDS011;6919;52.344;14.518;2022-08-04T13:03:08;5.03;;;2.03;;
13693;SDS011;6919;52.344;14.518;2022-08-04T13:05:41;1.95;;;1.77;;
13693;SDS011;6919;52.344;14.518;2022-08-04T13:08:12;2.30;;;2.10;;
13693;SDS011;6919;52.344;14.518;2022-08-04T13:10:48;3.55;;;2.15;;
13693;SDS011;6919;52.344;14.518;2022-08-04T13:13:23;1.73;;;1.63;;
13693;SDS011;6919;52.344;14.518;2022-08-04T13:15:56;3.67;;;1.90;;
13693;SDS011;6919;52.344;14.518;2022-08-04T13:18:29;2.20;;;2.00;;
13693;SDS011;6919;52.344;14.518;2022-08-04T13:21:09;2.17;;;1.90;;
13693;SDS011;6919;52.344;14.518;2022-08-04T13:23:47;4.90;;;1.92;;
13693;SDS011;6919;52.344;14.518;2022-08-04T13:26:45;2.88;;;1.88;;
13693;SDS011;6919;52.344;14.518;2022-08-04T13:29:22;3.25;;;1.98;;
13693;SDS011;6919;52.344;14.518;2022-08-04T13:32:18;1.77;;;1.67;;
13693;SDS011;6919;52.344;14.518;2022-08-04T13:34:50;2.42;;;1.92;;
13693;SDS011;6919;52.344;14.518;2022-08-04T13:37:23;4.18;;;2.00;;
13693;SDS011;6919;52.344;14.518;2022-08-04T13:39:58;3.45;;;2.08;;
13693;SDS011;6919;52.344;14.518;2022-08-04T13:42:30;2.33;;;1.95;;
13693;SDS011;6919;52.344;14.518;2022-08-04T13:45:01;9.80;;;2.05;;
13693;SDS011;6919;52.344;14.518;2022-08-04T13:47:34;2.38;;;2.17;;
13693;SDS011;6919;52.344;14.518;2022-08-04T13:50:14;4.05;;;2.00;;
13693;SDS011;6919;52.344;14.518;2022-08-04T13:52:50;4.80;;;1.95;;
13693;SDS011;6919;52.344;14.518;2022-08-04T13:55:21;4.40;;;1.95;;
13693;SDS011;6919;52.344;14.518;2022-08-04T13:57:59;4.28;;;1.75;;
13693;SDS011;6919;52.344;14.518;2022-08-04T14:00:42;2.50;;;2.00;;
13693;SDS011;6919;52.344;14.518;2022-08-04T14:03:21;2.70;;;1.80;;
13693;SDS011;6919;52.344;14.518;2022-08-04T14:06:10;4.30;;;2.33;;
13693;SDS011;6919;52.344;14.518;2022-08-04T14:08:45;9.02;;;1.95;;
13693;SDS011;6919;52.344;14.518;2022-08-04T14:11:17;3.67;;;2.20;;
13693;SDS011;6919;52.344;14.518;2022-08-04T14:14:15;2.10;;;1.90;;
13693;SDS011;6919;52.344;14.518;2022-08-04T14:16:55;2.78;;;1.90;;
13693;SDS011;6919;52.344;14.518;2022-08-04T14:19:26;2.95;;;1.80;;
13693;SDS011;6919;52.344;14.518;2022-08-04T14:22:26;3.35;;;1.83;;
13693;SDS011;6919;52.344;14.518;2022-08-04T14:25:00;1.85;;;1.67;;
13693;SDS011;6919;52.344;14.518;2022-08-04T14:27:41;2.35;;;2.13;;
13693;SDS011;6919;52.344;14.518;2022-08-04T14:30:24;2.33;;;2.03;;
13693;SDS011;6919;52.344;14.518;2022-08-04T14:32:58;3.17;;;2.20;;
13693;SDS011;6919;52.344;14.518;2022-08-04T14:35:56;3.95;;;1.98;;
13693;SDS011;6919;52.344;14.518;2022-08-04T14:38:40;4.50;;;2.20;;
13693;SDS011;6919;52.344;14.518;2022-08-04T14:41:12;2.25;;;2.00;;
13693;SDS011;6919;52.344;14.518;2022-08-04T14:43:44;2.10;;;1.80;;
13693;SDS011;6919;52.344;14.518;2022-08-04T14:46:15;2.17;;;1.85;;
13693;SDS011;6919;52.344;14.518;2022-08-04T14:51:40;2.20;;;1.95;;
13693;SDS011;6919;52.344;14.518;2022-08-04T14:54:12;2.00;;;1.90;;
13693;SDS011;6919;52.344;14.518;2022-08-04T14:56:50;6.18;;;2.05;;
13693;SDS011;6919;52.344;14.518;2022-08-04T14:59:20;3.30;;;1.60;;
13693;SDS011;6919;52.344;14.518;2022-08-04T15:01:51;2.60;;;1.83;;
13693;SDS011;6919;52.344;14.518;2022-08-04T15:04:26;2.65;;;1.95;;
13693;SDS011;6919;52.344;14.518;2022-08-04T15:06:57;1.90;;;1.80;;
13693;SDS011;6919;52.344;14.518;2022-08-04T15:09:30;3.72;;;2.17;;
13693;SDS011;6919;52.344;14.518;2022-08-04T15:11:59;2.40;;;2.20;;
13693;SDS011;6919;52.344;14.518;2022-08-04T15:14:29;4.45;;;1.77;;
13693;SDS011;6919;52.344;14.518;2022-08-04T15:17:04;5.90;;;1.98;;
13693;SDS011;6919;52.344;14.518;2022-08-04T15:19:54;2.85;;;1.70;;
13693;SDS011;6919;52.344;14.518;2022-08-04T15:22:23;2.50;;;1.77;;
13693;SDS011;6919;52.344;14.518;2022-08-04T15:24:52;2.15;;;1.90;;
13693;SDS011;6919;52.344;14.518;2022-08-04T15:27:22;5.78;;;2.60;;
13693;SDS011;6919;52.344;14.518;2022-08-04T15:29:55;2.38;;;1.83;;
13693;SDS011;6919;52.344;14.518;2022-08-04T15:32:30;5.90;;;2.05;;
13693;SDS011;6919;52.344;14.518;2022-08-04T15:35:03;2.53;;;1.63;;
13693;SDS011;6919;52.344;14.518;2022-08-04T15:37:39;6.53;;;2.20;;
13693;SDS011;6919;52.344;14.518;2022-08-04T15:40:22;2.67;;;2.05;;
13693;SDS011;6919;52.344;14.518;2022-08-04T15:43:12;2.35;;;2.15;;
13693;SDS011;6919;52.344;14.518;2022-08-04T15:46:06;2.42;;;1.90;;
13693;SDS011;6919;52.344;14.518;2022-08-04T15:48:56;4.68;;;2.22;;
13693;SDS011;6919;52.344;14.518;2022-08-04T15:51:46;4.13;;;2.03;;
13693;SDS011;6919;52.344;14.518;2022-08-04T15:54:26;2.42;;;2.08;;
13693;SDS011;6919;52.344;14.518;2022-08-04T15:56:58;4.55;;;2.00;;
13693;SDS011;6919;52.344;14.518;2022-08-04T16:02:28;5.65;;;2.05;;
13693;SDS011;6919;52.344;14.518;2022-08-04T16:08:08;6.07;;;1.92;;
13693;SDS011;6919;52.344;14.518;2022-08-04T16:10:43;4.28;;;2.25;;
13693;SDS011;6919;52.344;14.518;2022-08-04T16:13:14;2.90;;;2.00;;
13693;SDS011;6919;52.344;14.518;2022-08-04T16:15:46;2.83;;;1.98;;
13693;SDS011;6919;52.344;14.518;2022-08-04T16:18:19;3.53;;;2.22;;
13693;SDS011;6919;52.344;14.518;2022-08-04T16:21:15;4.00;;;2.10;;
13693;SDS011;6919;52.344;14.518;2022-08-04T16:23:55;3.03;;;1.95;;
13693;SDS011;6919;52.344;14.518;2022-08-04T16:26:47;2.20;;;2.00;;
13693;SDS011;6919;52.344;14.518;2022-08-04T16:29:36;2.20;;;1.58;;
13693;SDS011;6919;52.344;14.518;2022-08-04T16:32:08;2.78;;;2.00;;
13693;SDS011;6919;52.344;14.518;2022-08-04T16:34:39;8.98;;;2.55;;
13693;SDS011;6919;52.344;14.518;2022-08-04T16:37:17;2.13;;;1.92;;
13693;SDS011;6919;52.344;14.518;2022-08-04T16:39:46;2.35;;;2.15;;
13693;SDS011;6919;52.344;14.518;2022-08-04T16:42:27;5.00;;;3.17;;
13693;SDS011;6919;52.344;14.518;2022-08-04T16:44:59;13.68;;;8.07;;
13693;SDS011;6919;52.344;14.518;2022-08-04T16:50:30;20.92;;;17.83;;
13693;SDS011;6919;52.344;14.518;2022-08-04T16:53:01;3.90;;;2.05;;
13693;SDS011;6919;52.344;14.518;2022-08-04T16:55:58;3.05;;;2.50;;
13693;SDS011;6919;52.344;14.518;2022-08-04T16:58:27;4.72;;;2.35;;
13693;SDS011;6919;52.344;14.518;2022-08-04T17:00:58;3.38;;;2.17;;
13693;SDS011;6919;52.344;14.518;2022-08-04T17:03:48;5.63;;;4.65;;
13693;SDS011;6919;52.344;14.518;2022-08-04T17:06:23;3.83;;;2.38;;
13693;SDS011;6919;52.344;14.518;2022-08-04T17:09:08;2.85;;;2.00;;
13693;SDS011;6919;52.344;14.518;2022-08-04T17:11:39;4.78;;;3.25;;
13693;SDS011;6919;52.344;14.518;2022-08-04T17:14:09;3.63;;;2.17;;
13693;SDS011;6919;52.344;14.518;2022-08-04T17:16:40;4.30;;;1.85;;
13693;SDS011;6919;52.344;14.518;2022-08-04T17:19:09;3.95;;;1.63;;
13693;SDS011;6919;52.344;14.518;2022-08-04T17:21:52;2.33;;;1.83;;